Time;durP1;ratioP1;P1;durP2;ratioP2;P2;SDS_P1;SDS_P2;PMS_P1;PMS_P2;Temp;Humidity;BMP_temperature;BMP_pressure;BME280_temperature;BME280_humidity;BME280_pressure;Samples;Min_cycle;Max_cycle;Signal;HPM_P1;HPM_P2
2022/04/18 00:00:02;;;;;;;6.20;4.00;;;15.90;68.80;;;;;;687152;28;30525;-36
2022/04/18 00:00:23;;;;;;;5.28;3.53;;;15.90;68.80;;;;;;688455;28;1264;-35
2022/04/18 00:01:01;;;;;;;5.35;3.38;;;15.90;68.80;;;;;;686141;28;67230;-35
2022/04/18 00:01:22;;;;;;;5.22;3.30;;;15.90;68.80;;;;;;688503;28;1438;-36
2022/04/18 00:01:43;;;;;;;5.85;3.63;;;15.90;68.80;;;;;;688245;28;1090;-36
2022/04/18 00:02:04;;;;;;;6.15;4.00;;;15.90;68.80;;;;;;688246;28;1004;-36
2022/04/18 00:02:25;;;;;;;5.60;3.78;;;15.90;68.90;;;;;;688506;28;1092;-35
2022/04/18 00:02:46;;;;;;;5.72;3.70;;;15.90;68.80;;;;;;688546;28;961;-36
2022/04/18 00:03:07;;;;;;;5.38;3.63;;;15.90;68.90;;;;;;688299;28;1991;-35
2022/04/18 00:03:28;;;;;;;5.35;3.40;;;15.90;68.90;;;;;;688517;28;1582;-36
2022/04/18 00:03:49;;;;;;;5.45;3.58;;;15.90;68.90;;;;;;688220;28;1051;-35
2022/04/18 00:04:10;;;;;;;5.63;3.60;;;15.90;68.80;;;;;;688381;28;1067;-36
2022/04/18 00:04:31;;;;;;;5.70;3.70;;;15.90;68.80;;;;;;688392;28;1184;-36
2022/04/18 00:04:52;;;;;;;5.85;3.85;;;15.90;68.80;;;;;;688532;28;750;-35
2022/04/18 00:05:13;;;;;;;6.13;3.50;;;15.90;68.80;;;;;;688316;28;1019;-35
2022/04/18 00:05:34;;;;;;;5.45;3.70;;;15.90;68.80;;;;;;688439;28;1068;-35
2022/04/18 00:05:55;;;;;;;4.93;3.50;;;15.90;68.80;;;;;;688385;28;994;-35
2022/04/18 00:06:16;;;;;;;5.50;3.70;;;15.90;68.80;;;;;;688386;28;1019;-35
2022/04/18 00:06:37;;;;;;;4.97;3.40;;;15.90;68.80;;;;;;688514;28;992;-36
2022/04/18 00:06:58;;;;;;;4.95;3.50;;;15.90;68.80;;;;;;688495;28;980;-35
2022/04/18 00:07:37;;;;;;;5.17;3.47;;;15.90;68.80;;;;;;688360;28;1086;-36
2022/04/18 00:07:58;;;;;;;4.75;3.28;;;15.90;68.80;;;;;;686002;28;67708;-35
2022/04/18 00:08:19;;;;;;;5.30;3.47;;;15.90;68.80;;;;;;688332;28;1145;-35
2022/04/18 00:08:40;;;;;;;4.82;3.45;;;15.90;69.40;;;;;;691030;28;993;-35
2022/04/18 00:09:01;;;;;;;5.05;3.42;;;15.90;68.80;;;;;;691042;28;1070;-35
2022/04/18 00:09:22;;;;;;;4.60;3.17;;;15.90;68.80;;;;;;690884;28;1044;-35
2022/04/18 00:09:43;;;;;;;5.25;3.65;;;15.90;68.80;;;;;;691005;28;1003;-35
2022/04/18 00:10:04;;;;;;;5.15;3.47;;;15.90;68.80;;;;;;690693;28;1134;-36
2022/04/18 00:10:25;;;;;;;4.97;3.25;;;15.90;68.80;;;;;;690443;28;1059;-36
2022/04/18 00:10:46;;;;;;;5.22;3.47;;;15.90;68.80;;;;;;688476;28;1118;-36
2022/04/18 00:11:07;;;;;;;5.05;3.33;;;15.90;68.80;;;;;;688384;28;1090;-35
2022/04/18 00:11:27;;;;;;;5.53;3.63;;;15.90;68.80;;;;;;688312;28;1091;-36
2022/04/18 00:11:48;;;;;;;5.30;3.80;;;15.90;68.80;;;;;;688440;28;1030;-35
2022/04/18 00:12:09;;;;;;;4.95;3.47;;;15.90;68.80;;;;;;688077;28;1053;-35
2022/04/18 00:12:30;;;;;;;5.25;3.58;;;15.90;68.80;;;;;;688511;28;963;-35
2022/04/18 00:12:51;;;;;;;5.05;3.30;;;15.90;68.80;;;;;;688140;28;1100;-36
2022/04/18 00:13:12;;;;;;;5.25;3.45;;;15.90;68.80;;;;;;688151;28;1042;-37
2022/04/18 00:13:33;;;;;;;5.93;3.55;;;15.90;68.80;;;;;;688131;28;1091;-36
2022/04/18 00:13:53;;;;;;;5.10;3.50;;;15.90;68.80;;;;;;688213;28;1044;-37
2022/04/18 00:14:14;;;;;;;5.10;3.53;;;15.90;68.80;;;;;;687846;28;1034;-35
2022/04/18 00:14:35;;;;;;;5.22;3.45;;;15.90;68.80;;;;;;688263;28;1056;-35
2022/04/18 00:14:56;;;;;;;5.15;3.58;;;15.90;68.80;;;;;;688591;28;984;-36
2022/04/18 00:15:17;;;;;;;4.85;3.58;;;15.90;68.80;;;;;;688174;28;1020;-35
2022/04/18 00:15:38;;;;;;;6.53;3.87;;;15.90;68.80;;;;;;688208;28;1265;-35
2022/04/18 00:15:58;;;;;;;5.93;3.53;;;15.90;68.80;;;;;;688312;28;777;-35
2022/04/18 00:16:19;;;;;;;5.68;3.58;;;15.90;68.80;;;;;;687841;28;983;-36
2022/04/18 00:16:40;;;;;;;4.63;3.08;;;15.90;68.80;;;;;;688318;28;1264;-36
2022/04/18 00:17:01;;;;;;;4.63;3.10;;;15.90;68.80;;;;;;685553;28;1113;-36
2022/04/18 00:17:22;;;;;;;5.38;3.52;;;15.90;68.80;;;;;;685919;28;1102;-35
2022/04/18 00:17:43;;;;;;;5.83;3.57;;;15.90;68.80;;;;;;688306;28;978;-35
2022/04/18 00:18:04;;;;;;;6.30;3.70;;;15.90;68.70;;;;;;688256;28;1019;-36
2022/04/18 00:18:25;;;;;;;5.28;3.35;;;15.90;68.70;;;;;;685301;28;1445;-36
2022/04/18 00:18:46;;;;;;;5.20;3.40;;;15.90;68.70;;;;;;686158;28;1273;-36
2022/04/18 00:19:07;;;;;;;4.55;3.28;;;15.90;68.70;;;;;;685307;28;1001;-35
2022/04/18 00:19:28;;;;;;;5.07;3.42;;;15.90;68.70;;;;;;685618;28;735;-36
2022/04/18 00:19:49;;;;;;;4.85;3.33;;;15.90;68.70;;;;;;685577;28;1083;-35
2022/04/18 00:20:10;;;;;;;4.93;3.22;;;15.90;68.70;;;;;;685906;28;955;-35
2022/04/18 00:20:31;;;;;;;5.30;3.47;;;15.90;68.70;;;;;;688087;28;1064;-36
2022/04/18 00:20:52;;;;;;;5.40;3.53;;;15.90;68.70;;;;;;688844;28;1011;-36
2022/04/18 00:21:13;;;;;;;5.50;3.40;;;15.90;68.70;;;;;;690676;28;996;-35
2022/04/18 00:21:33;;;;;;;5.93;3.50;;;15.90;68.70;;;;;;690865;28;1004;-35
2022/04/18 00:21:54;;;;;;;5.18;3.63;;;15.90;68.70;;;;;;690877;28;1013;-37
2022/04/18 00:22:15;;;;;;;6.05;3.92;;;15.90;68.70;;;;;;690783;28;1031;-37
2022/04/18 00:22:36;;;;;;;5.45;3.53;;;15.90;68.60;;;;;;690326;28;1051;-35
2022/04/18 00:22:57;;;;;;;4.95;3.55;;;15.90;68.60;;;;;;688271;28;1983;-35
2022/04/18 00:23:18;;;;;;;5.27;3.80;;;15.90;68.70;;;;;;688067;28;1177;-35
2022/04/18 00:23:39;;;;;;;5.33;3.67;;;15.90;68.70;;;;;;688279;28;951;-35
2022/04/18 00:24:00;;;;;;;4.90;3.53;;;15.90;68.70;;;;;;688235;28;1201;-35
2022/04/18 00:24:21;;;;;;;5.10;3.50;;;15.90;68.70;;;;;;687859;28;1048;-36
2022/04/18 00:24:42;;;;;;;5.43;3.80;;;15.90;68.70;;;;;;688087;28;1047;-35
2022/04/18 00:25:03;;;;;;;6.40;3.60;;;15.90;68.70;;;;;;688170;28;1071;-36
2022/04/18 00:25:24;;;;;;;5.47;3.40;;;15.90;68.70;;;;;;688024;28;970;-36
2022/04/18 00:25:45;;;;;;;5.13;3.45;;;15.90;68.80;;;;;;688217;28;998;-36
2022/04/18 00:26:05;;;;;;;5.93;3.72;;;15.90;68.80;;;;;;688298;28;1069;-36
2022/04/18 00:26:26;;;;;;;5.90;3.72;;;15.90;68.80;;;;;;688048;28;908;-36
2022/04/18 00:26:47;;;;;;;4.82;3.38;;;15.90;68.80;;;;;;688248;28;1024;-37
2022/04/18 00:27:08;;;;;;;5.07;3.70;;;15.90;69.30;;;;;;688123;28;1050;-36
2022/04/18 00:27:29;;;;;;;5.00;3.47;;;15.90;68.80;;;;;;688288;28;1915;-36
2022/04/18 00:27:50;;;;;;;5.20;3.55;;;15.90;68.70;;;;;;688215;28;1039;-36
2022/04/18 00:28:12;;;;;;;6.50;3.80;;;15.90;68.70;;;;;;688051;28;1153;-35
2022/04/18 00:28:33;;;;;;;5.07;3.50;;;15.90;68.70;;;;;;688120;28;1219;-36
2022/04/18 00:28:54;;;;;;;4.75;3.50;;;15.90;68.70;;;;;;688055;28;1017;-36
2022/04/18 00:29:15;;;;;;;5.20;3.60;;;15.90;68.70;;;;;;688325;28;1158;-37
2022/04/18 00:29:36;;;;;;;4.80;3.65;;;15.90;68.70;;;;;;688091;28;1239;-35
2022/04/18 00:29:57;;;;;;;5.28;3.63;;;15.90;68.70;;;;;;688316;28;1082;-36
2022/04/18 00:30:18;;;;;;;5.47;4.00;;;15.80;68.60;;;;;;687940;28;982;-36
2022/04/18 00:30:39;;;;;;;5.10;3.72;;;15.90;68.60;;;;;;688001;28;1022;-35
2022/04/18 00:30:59;;;;;;;5.38;3.78;;;15.80;68.60;;;;;;688157;28;970;-35
2022/04/18 00:31:20;;;;;;;6.07;3.95;;;15.80;68.60;;;;;;688499;28;954;-35
2022/04/18 00:31:42;;;;;;;6.07;3.70;;;15.90;68.60;;;;;;690439;28;1110;-37
2022/04/18 00:32:04;;;;;;;5.63;3.95;;;15.90;68.60;;;;;;688544;28;982;-36
2022/04/18 00:32:25;;;;;;;5.00;3.60;;;15.80;68.50;;;;;;688262;28;1155;-35
2022/04/18 00:32:45;;;;;;;5.68;4.10;;;15.90;68.60;;;;;;688107;28;1102;-35
2022/04/18 00:33:08;;;;;;;5.65;3.97;;;15.80;68.50;;;;;;688144;28;1019;-35
2022/04/18 00:33:29;;;;;;;5.50;3.90;;;15.90;68.60;;;;;;687995;28;8022;-35
2022/04/18 00:33:49;;;;;;;6.90;4.50;;;15.90;68.60;;;;;;688172;28;1059;-37
2022/04/18 00:34:10;;;;;;;6.22;4.38;;;15.80;68.50;;;;;;688145;28;1029;-36
2022/04/18 00:34:32;;;;;;;5.65;4.10;;;15.90;68.60;;;;;;688241;28;1141;-35
2022/04/18 00:34:52;;;;;;;5.65;4.05;;;15.80;68.60;;;;;;688306;28;1059;-35
2022/04/18 00:35:13;;;;;;;6.45;4.35;;;15.90;69.20;;;;;;688128;28;1043;-36
2022/04/18 00:35:34;;;;;;;5.90;4.32;;;15.90;68.60;;;;;;690733;28;991;-36
2022/04/18 00:35:55;;;;;;;5.28;3.97;;;15.90;68.60;;;;;;690621;28;1047;-35
2022/04/18 00:36:16;;;;;;;5.63;3.80;;;15.90;68.60;;;;;;690536;28;989;-36
2022/04/18 00:36:37;;;;;;;6.18;4.18;;;15.90;68.60;;;;;;690671;28;1080;-35
2022/04/18 00:36:58;;;;;;;6.13;4.60;;;15.90;68.60;;;;;;690495;28;1206;-36
2022/04/18 00:37:19;;;;;;;6.57;4.53;;;15.90;68.60;;;;;;690006;28;1010;-36
2022/04/18 00:37:58;;;;;;;6.20;4.40;;;15.90;68.60;;;;;;688484;28;1800;-35
2022/04/18 00:38:19;;;;;;;6.15;4.25;;;15.80;68.50;;;;;;685600;28;77550;-35
2022/04/18 00:38:44;;;;;;;6.13;4.13;;;15.90;68.60;;;;;;688306;28;1013;-35
2022/04/18 00:39:05;;;;;;;5.90;4.20;;;15.80;68.60;;;;;;686153;28;55397;-37
2022/04/18 00:39:25;;;;;;;6.00;4.07;;;15.90;68.60;;;;;;688069;28;1010;-35
2022/04/18 00:39:47;;;;;;;6.13;4.60;;;15.90;68.60;;;;;;688215;28;1174;-36
2022/04/18 00:40:11;;;;;;;6.00;4.53;;;15.80;68.60;;;;;;688182;28;1025;-36
2022/04/18 00:40:32;;;;;;;5.65;4.30;;;15.90;68.60;;;;;;687204;28;31123;-35
2022/04/18 00:40:53;;;;;;;5.90;4.40;;;15.80;68.60;;;;;;688390;28;1044;-36
2022/04/18 00:41:13;;;;;;;6.13;4.30;;;15.90;68.60;;;;;;687959;28;1025;-36
2022/04/18 00:41:34;;;;;;;6.38;4.93;;;15.80;68.60;;;;;;688501;28;1046;-34
2022/04/18 00:41:55;;;;;;;6.63;4.97;;;15.90;68.70;;;;;;688449;28;1079;-35
2022/04/18 00:42:16;;;;;;;7.13;4.75;;;15.80;68.60;;;;;;688363;28;1035;-37
2022/04/18 00:42:37;;;;;;;6.57;5.10;;;15.80;68.60;;;;;;688233;28;1355;-35
2022/04/18 00:43:02;;;;;;;7.38;5.30;;;15.80;68.60;;;;;;688282;28;1910;-35
2022/04/18 00:43:52;;;;;;;6.45;4.80;;;15.90;68.70;;;;;;683354;28;55323;-35
2022/04/18 00:44:13;;;;;;;6.30;4.55;;;15.80;68.60;;;;;;677171;29;77830;-35
2022/04/18 00:44:34;;;;;;;6.50;4.65;;;15.80;68.60;;;;;;682956;28;1109;-35
2022/04/18 00:44:55;;;;;;;6.35;4.47;;;15.80;68.60;;;;;;687835;28;1014;-36
2022/04/18 00:45:16;;;;;;;6.77;4.80;;;15.80;68.60;;;;;;687913;28;1071;-36
2022/04/18 00:45:37;;;;;;;7.37;4.97;;;15.80;68.60;;;;;;688415;28;1047;-35
2022/04/18 00:45:58;;;;;;;7.10;4.90;;;15.90;68.70;;;;;;688309;28;1041;-35
2022/04/18 00:46:19;;;;;;;6.55;4.45;;;15.80;68.60;;;;;;688324;28;1059;-36
2022/04/18 00:46:40;;;;;;;5.72;4.40;;;15.80;68.60;;;;;;688391;28;1043;-35
2022/04/18 00:47:01;;;;;;;6.75;4.90;;;15.90;68.70;;;;;;688399;28;1197;-35
2022/04/18 00:47:22;;;;;;;7.22;5.10;;;15.90;68.70;;;;;;687981;28;1094;-36
2022/04/18 00:47:42;;;;;;;5.97;4.47;;;15.80;68.60;;;;;;688384;28;1102;-36
2022/04/18 00:48:06;;;;;;;6.60;4.82;;;15.80;68.60;;;;;;688417;28;1013;-36
2022/04/18 00:48:27;;;;;;;6.75;4.57;;;15.80;68.60;;;;;;685357;28;1048;-36
2022/04/18 00:48:48;;;;;;;6.65;4.53;;;15.80;68.60;;;;;;685467;28;1093;-35
2022/04/18 00:49:09;;;;;;;6.78;4.63;;;15.80;68.60;;;;;;685431;28;997;-35
2022/04/18 00:49:29;;;;;;;6.97;4.97;;;15.80;68.60;;;;;;685061;28;1076;-36
2022/04/18 00:49:50;;;;;;;6.50;4.90;;;15.90;68.70;;;;;;685569;28;1011;-35
2022/04/18 00:50:11;;;;;;;6.63;4.80;;;15.80;68.70;;;;;;686077;28;1062;-36
2022/04/18 00:50:33;;;;;;;7.05;5.15;;;15.80;69.20;;;;;;688338;28;911;-36
2022/04/18 00:50:54;;;;;;;7.32;5.38;;;15.80;68.70;;;;;;688354;28;1012;-35
2022/04/18 00:51:21;;;;;;;6.40;4.97;;;15.80;68.70;;;;;;685297;28;1264;-36
2022/04/18 00:51:41;;;;;;;6.10;4.38;;;15.80;68.70;;;;;;683030;28;68782;-35
2022/04/18 00:52:04;;;;;;;6.53;4.70;;;15.80;69.30;;;;;;685498;28;1036;-35
2022/04/18 00:52:25;;;;;;;6.65;4.68;;;15.80;68.70;;;;;;685133;28;8048;-35
2022/04/18 00:52:46;;;;;;;6.13;4.68;;;15.90;68.80;;;;;;685422;28;1075;-35
2022/04/18 00:53:07;;;;;;;6.80;4.80;;;15.80;68.70;;;;;;688297;28;1091;-36
2022/04/18 00:53:28;;;;;;;6.20;4.63;;;15.80;68.70;;;;;;687266;28;947;-35
2022/04/18 00:53:52;;;;;;;7.03;4.80;;;15.80;68.70;;;;;;685390;28;1036;-35
2022/04/18 00:54:13;;;;;;;6.55;4.57;;;15.80;68.70;;;;;;681738;29;30995;-36
2022/04/18 00:54:34;;;;;;;6.32;4.60;;;15.80;68.70;;;;;;682819;29;1048;-35
2022/04/18 00:54:54;;;;;;;6.57;4.40;;;15.80;68.70;;;;;;684704;28;1050;-35
2022/04/18 00:55:16;;;;;;;6.68;4.57;;;15.80;68.70;;;;;;688086;28;1086;-35
2022/04/18 00:55:36;;;;;;;6.85;4.68;;;15.80;68.60;;;;;;685386;28;1244;-35
2022/04/18 00:55:57;;;;;;;6.65;4.68;;;15.80;68.70;;;;;;686359;28;983;-35
2022/04/18 00:56:18;;;;;;;5.50;4.07;;;15.80;68.70;;;;;;688047;28;1111;-35
2022/04/18 00:56:40;;;;;;;6.07;4.30;;;15.80;68.70;;;;;;688271;28;1020;-35
2022/04/18 00:57:02;;;;;;;6.18;4.50;;;15.80;68.70;;;;;;688160;28;989;-36
2022/04/18 00:57:23;;;;;;;6.15;4.13;;;15.80;68.70;;;;;;686115;28;1040;-35
2022/04/18 00:57:44;;;;;;;6.18;4.55;;;15.80;68.60;;;;;;688071;28;998;-36
2022/04/18 00:58:05;;;;;;;6.30;4.40;;;15.80;68.60;;;;;;685449;28;1045;-35
2022/04/18 00:58:26;;;;;;;6.25;4.53;;;15.80;68.60;;;;;;685334;28;1185;-35
2022/04/18 00:58:47;;;;;;;6.45;4.68;;;15.80;68.60;;;;;;682927;29;1051;-36
2022/04/18 00:59:08;;;;;;;5.93;4.30;;;15.80;68.60;;;;;;683415;28;1085;-36
2022/04/18 00:59:32;;;;;;;6.50;4.28;;;15.80;68.70;;;;;;685265;28;1340;-37
2022/04/18 00:59:53;;;;;;;6.65;4.30;;;15.80;68.70;;;;;;686021;28;8037;-35
2022/04/18 01:00:14;;;;;;;6.33;3.97;;;15.80;68.60;;;;;;685481;28;1166;-35
2022/04/18 01:00:35;;;;;;;5.05;3.83;;;15.80;68.70;;;;;;686616;28;1004;-35
2022/04/18 01:00:56;;;;;;;5.95;3.85;;;15.80;68.70;;;;;;688115;28;1056;-36
2022/04/18 01:01:17;;;;;;;6.28;4.20;;;15.80;68.60;;;;;;688109;28;1066;-35
2022/04/18 01:01:38;;;;;;;5.50;4.20;;;15.80;68.60;;;;;;688277;28;1111;-36
2022/04/18 01:01:59;;;;;;;5.80;4.30;;;15.80;68.60;;;;;;687589;28;1101;-36
2022/04/18 01:02:20;;;;;;;5.97;4.20;;;15.80;68.60;;;;;;687866;28;1120;-35
2022/04/18 01:02:41;;;;;;;6.70;4.20;;;15.80;68.60;;;;;;688015;28;1004;-35
2022/04/18 01:03:02;;;;;;;6.60;4.05;;;15.80;68.60;;;;;;685224;28;1906;-36
2022/04/18 01:03:23;;;;;;;6.20;4.05;;;15.80;68.60;;;;;;685246;28;1048;-35
2022/04/18 01:03:44;;;;;;;6.18;4.28;;;15.80;68.60;;;;;;686004;28;979;-35
2022/04/18 01:04:05;;;;;;;5.25;3.97;;;15.80;68.60;;;;;;687951;28;1028;-35
2022/04/18 01:04:26;;;;;;;5.45;3.90;;;15.80;69.10;;;;;;688063;28;1099;-35
2022/04/18 01:04:48;;;;;;;5.90;3.88;;;15.80;68.60;;;;;;688806;28;1091;-35
2022/04/18 01:05:09;;;;;;;6.03;4.07;;;15.80;68.60;;;;;;688600;28;1059;-36
2022/04/18 01:05:30;;;;;;;5.80;3.83;;;15.80;68.60;;;;;;688593;28;1030;-36
2022/04/18 01:05:51;;;;;;;5.30;3.83;;;15.80;68.50;;;;;;688609;28;1037;-36
2022/04/18 01:06:13;;;;;;;5.82;4.28;;;15.80;68.50;;;;;;685860;28;1023;-36
2022/04/18 01:06:34;;;;;;;6.72;4.35;;;15.80;68.50;;;;;;685784;28;1041;-35
2022/04/18 01:06:55;;;;;;;6.80;4.43;;;15.80;68.50;;;;;;686001;28;1051;-35
2022/04/18 01:07:16;;;;;;;5.95;4.05;;;15.80;68.50;;;;;;683239;29;1004;-36
2022/04/18 01:07:37;;;;;;;5.43;4.15;;;15.80;68.50;;;;;;684048;28;1078;-36
2022/04/18 01:07:58;;;;;;;5.97;4.50;;;15.80;68.50;;;;;;686800;28;970;-35
2022/04/18 01:08:19;;;;;;;6.20;4.25;;;15.80;68.50;;;;;;685669;28;1118;-37
2022/04/18 01:08:40;;;;;;;5.78;4.25;;;15.80;68.50;;;;;;685358;28;1050;-35
2022/04/18 01:09:01;;;;;;;6.10;4.35;;;15.80;68.50;;;;;;685977;28;1527;-36
2022/04/18 01:09:22;;;;;;;5.55;4.00;;;15.80;68.50;;;;;;685046;28;988;-36
2022/04/18 01:09:43;;;;;;;5.30;4.00;;;15.80;68.60;;;;;;686050;28;1051;-35
2022/04/18 01:10:04;;;;;;;6.25;4.28;;;15.80;68.60;;;;;;686019;28;1059;-35
2022/04/18 01:10:25;;;;;;;6.80;4.57;;;15.80;68.60;;;;;;685586;28;1181;-37
2022/04/18 01:10:46;;;;;;;5.97;4.13;;;15.80;68.60;;;;;;685477;28;1071;-35
2022/04/18 01:11:09;;;;;;;6.70;4.28;;;15.80;68.60;;;;;;686730;28;1138;-36
2022/04/18 01:11:32;;;;;;;7.25;4.85;;;15.80;68.60;;;;;;688368;28;1015;-35
2022/04/18 01:11:53;;;;;;;6.88;4.38;;;15.80;68.60;;;;;;689690;28;1093;-37
2022/04/18 01:12:14;;;;;;;6.40;4.32;;;15.80;68.60;;;;;;691504;28;990;-36
2022/04/18 01:12:35;;;;;;;5.72;4.28;;;15.80;68.70;;;;;;691190;28;904;-35
2022/04/18 01:12:55;;;;;;;6.22;4.30;;;15.80;68.60;;;;;;690402;28;1036;-37
2022/04/18 01:13:16;;;;;;;6.70;4.30;;;15.80;68.70;;;;;;688839;28;1000;-36
2022/04/18 01:13:44;;;;;;;6.07;4.35;;;15.80;68.60;;;;;;688605;28;995;-35
2022/04/18 01:14:05;;;;;;;6.18;4.65;;;15.80;68.70;;;;;;686055;28;77317;-35
2022/04/18 01:14:25;;;;;;;6.78;4.65;;;15.80;68.60;;;;;;688266;28;1018;-35
2022/04/18 01:14:47;;;;;;;6.00;4.30;;;15.80;68.70;;;;;;685921;28;996;-35
2022/04/18 01:15:08;;;;;;;7.43;4.88;;;15.80;68.70;;;;;;686088;28;995;-36
2022/04/18 01:15:30;;;;;;;7.10;4.70;;;15.80;68.70;;;;;;687503;28;1059;-36
2022/04/18 01:15:52;;;;;;;6.90;4.63;;;15.80;68.70;;;;;;688670;28;1066;-35
2022/04/18 01:16:14;;;;;;;7.20;5.00;;;15.80;68.70;;;;;;686041;28;1082;-35
2022/04/18 01:16:35;;;;;;;7.20;5.15;;;15.80;68.70;;;;;;686658;28;850;-36
2022/04/18 01:16:56;;;;;;;7.40;4.97;;;15.80;68.70;;;;;;688578;28;1045;-35
2022/04/18 01:17:17;;;;;;;7.80;5.20;;;15.80;68.70;;;;;;688787;28;746;-35
2022/04/18 01:17:37;;;;;;;8.38;5.40;;;15.80;68.70;;;;;;688570;28;1090;-35
2022/04/18 01:18:17;;;;;;;7.32;5.10;;;15.80;68.70;;;;;;688714;28;984;-35
2022/04/18 01:18:38;;;;;;;8.10;5.22;;;15.80;68.70;;;;;;685964;28;77969;-35
2022/04/18 01:18:59;;;;;;;7.32;5.03;;;15.80;68.60;;;;;;688952;28;1299;-36
2022/04/18 01:19:20;;;;;;;7.85;5.35;;;15.80;68.60;;;;;;688724;28;1137;-37
2022/04/18 01:19:41;;;;;;;7.93;5.35;;;15.80;68.60;;;;;;688927;28;1091;-36
2022/04/18 01:20:03;;;;;;;7.50;5.20;;;15.80;68.60;;;;;;688974;28;1109;-37
2022/04/18 01:20:25;;;;;;;7.28;5.10;;;15.80;68.60;;;;;;688383;28;1008;-36
2022/04/18 01:20:46;;;;;;;8.80;5.70;;;15.80;68.60;;;;;;688576;28;1071;-35
2022/04/18 01:21:08;;;;;;;8.18;5.57;;;15.80;68.60;;;;;;688679;28;1149;-35
2022/04/18 01:21:29;;;;;;;7.97;5.57;;;15.80;68.60;;;;;;685885;28;1024;-36
2022/04/18 01:21:50;;;;;;;8.90;5.88;;;15.80;68.60;;;;;;686014;28;958;-35
2022/04/18 01:22:11;;;;;;;8.68;6.10;;;15.80;68.60;;;;;;686949;28;965;-36
2022/04/18 01:22:32;;;;;;;8.43;5.70;;;15.80;68.60;;;;;;688477;28;1092;-36
2022/04/18 01:22:53;;;;;;;8.27;5.82;;;15.80;68.60;;;;;;685727;28;1083;-36
2022/04/18 01:23:14;;;;;;;8.38;5.88;;;15.80;68.60;;;;;;686617;28;1914;-35
2022/04/18 01:23:35;;;;;;;7.55;5.28;;;15.80;68.60;;;;;;688527;28;983;-36
2022/04/18 01:23:56;;;;;;;8.00;5.32;;;15.80;68.60;;;;;;688681;28;1125;-35
2022/04/18 01:29:00;;;;;;;8.00;5.43;;;15.80;68.70;;;;;;686352;28;69817;-35
2022/04/18 01:29:21;;;;;;;8.10;5.72;;;15.80;68.70;;;;;;686830;28;55632;-35
2022/04/18 01:29:42;;;;;;;6.90;5.35;;;15.80;68.70;;;;;;688935;28;1013;-35
2022/04/18 01:30:03;;;;;;;7.38;5.40;;;15.80;68.70;;;;;;688953;28;1097;-35
2022/04/18 01:30:24;;;;;;;7.90;5.40;;;15.80;68.80;;;;;;688809;28;1001;-35
2022/04/18 01:30:45;;;;;;;7.13;5.15;;;15.80;68.80;;;;;;688880;28;1029;-36
2022/04/18 01:31:06;;;;;;;7.80;5.57;;;15.80;68.70;;;;;;688608;28;1048;-35
2022/04/18 01:31:31;;;;;;;8.13;5.43;;;15.80;68.80;;;;;;688626;28;1020;-35
2022/04/18 01:31:52;;;;;;;7.20;5.22;;;15.80;68.80;;;;;;686350;28;78056;-36
2022/04/18 01:32:13;;;;;;;7.40;5.30;;;15.80;68.70;;;;;;688826;28;1240;-35
2022/04/18 01:32:34;;;;;;;7.53;5.15;;;15.80;68.80;;;;;;688788;28;1019;-35
2022/04/18 01:32:55;;;;;;;7.13;5.03;;;15.80;68.80;;;;;;688750;28;989;-35
2022/04/18 01:33:16;;;;;;;7.18;5.28;;;15.80;68.70;;;;;;688685;28;1068;-35
2022/04/18 01:33:38;;;;;;;8.03;5.30;;;15.80;68.70;;;;;;688705;28;1078;-36
2022/04/18 01:33:59;;;;;;;7.03;4.95;;;15.80;68.70;;;;;;688631;28;1020;-35
2022/04/18 01:34:20;;;;;;;6.78;4.88;;;15.80;68.70;;;;;;688685;28;1032;-35
2022/04/18 01:34:40;;;;;;;7.23;4.93;;;15.80;68.70;;;;;;688474;28;1021;-36
2022/04/18 01:35:01;;;;;;;6.83;4.87;;;15.80;68.70;;;;;;688624;28;1091;-35
2022/04/18 01:35:22;;;;;;;7.15;4.80;;;15.80;68.70;;;;;;688437;28;1043;-36
2022/04/18 01:35:43;;;;;;;7.20;4.90;;;15.80;68.70;;;;;;688671;28;1436;-36
2022/04/18 01:36:05;;;;;;;7.03;4.95;;;15.80;68.70;;;;;;688842;28;958;-36
2022/04/18 01:36:26;;;;;;;6.90;4.78;;;15.80;68.70;;;;;;688667;28;1037;-37
2022/04/18 01:36:47;;;;;;;7.20;4.65;;;15.80;68.70;;;;;;688809;28;1067;-36
2022/04/18 01:37:08;;;;;;;6.75;4.65;;;15.80;68.70;;;;;;688892;28;1085;-36
2022/04/18 01:37:29;;;;;;;6.32;4.70;;;15.80;68.80;;;;;;688486;28;1466;-36
2022/04/18 01:37:50;;;;;;;6.78;4.63;;;15.80;68.80;;;;;;688995;28;1012;-36
2022/04/18 01:38:11;;;;;;;6.90;4.45;;;15.80;68.80;;;;;;688717;28;1047;-37
2022/04/18 01:38:32;;;;;;;6.68;4.40;;;15.80;68.80;;;;;;688746;28;1031;-35
2022/04/18 01:38:53;;;;;;;6.28;4.70;;;15.80;68.80;;;;;;688793;28;981;-36
2022/04/18 01:39:14;;;;;;;6.95;4.75;;;15.80;68.80;;;;;;688881;28;1029;-35
2022/04/18 01:39:34;;;;;;;6.85;4.50;;;15.80;68.80;;;;;;688434;28;942;-35
2022/04/18 01:39:56;;;;;;;6.10;4.18;;;15.80;68.80;;;;;;688903;28;1851;-35
2022/04/18 01:40:16;;;;;;;6.55;4.03;;;15.80;68.80;;;;;;688820;28;1117;-35
2022/04/18 01:40:37;;;;;;;6.03;4.13;;;15.80;68.80;;;;;;688657;28;985;-35
2022/04/18 01:40:58;;;;;;;5.80;4.30;;;15.80;68.80;;;;;;688766;28;985;-36
2022/04/18 01:41:19;;;;;;;5.47;4.00;;;15.80;68.80;;;;;;688990;28;1082;-35
2022/04/18 01:41:41;;;;;;;6.32;4.07;;;15.80;68.70;;;;;;688391;28;1046;-35
2022/04/18 01:42:01;;;;;;;7.22;4.47;;;15.80;68.70;;;;;;688896;28;1010;-35
2022/04/18 01:42:22;;;;;;;6.47;4.30;;;15.80;68.80;;;;;;688830;28;986;-35
2022/04/18 01:42:44;;;;;;;5.85;4.10;;;15.80;68.70;;;;;;688598;28;1158;-35
2022/04/18 01:43:05;;;;;;;6.00;4.50;;;15.80;68.70;;;;;;688952;28;1914;-36
2022/04/18 01:43:26;;;;;;;5.20;4.05;;;15.80;68.70;;;;;;688590;28;1008;-36
2022/04/18 01:43:47;;;;;;;6.00;4.07;;;15.80;68.70;;;;;;688691;28;1118;-36
2022/04/18 01:44:08;;;;;;;5.40;3.72;;;15.80;68.70;;;;;;688888;28;1184;-35
2022/04/18 01:44:29;;;;;;;5.65;3.90;;;15.80;68.70;;;;;;688526;28;997;-36
2022/04/18 01:44:51;;;;;;;5.80;4.10;;;15.80;68.60;;;;;;688912;28;1011;-35
2022/04/18 01:45:12;;;;;;;5.47;4.10;;;15.80;68.60;;;;;;688653;28;8038;-37
2022/04/18 01:45:34;;;;;;;5.90;4.07;;;15.80;68.60;;;;;;688530;28;973;-35
2022/04/18 01:45:55;;;;;;;5.43;4.10;;;15.80;68.60;;;;;;688706;28;1100;-36
2022/04/18 01:46:17;;;;;;;5.68;4.25;;;15.80;68.60;;;;;;688817;28;1173;-36
2022/04/18 01:46:37;;;;;;;5.78;4.43;;;15.70;68.60;;;;;;688477;28;994;-35
2022/04/18 01:46:58;;;;;;;5.35;4.10;;;15.80;68.60;;;;;;688593;28;1043;-35
2022/04/18 01:47:19;;;;;;;4.97;3.50;;;15.80;68.60;;;;;;688663;28;1218;-35
2022/04/18 01:47:40;;;;;;;6.22;4.10;;;15.80;68.60;;;;;;688355;28;1153;-35
2022/04/18 01:48:01;;;;;;;5.88;3.85;;;15.70;68.50;;;;;;688532;28;1161;-36
2022/04/18 01:48:22;;;;;;;5.65;3.70;;;15.80;68.60;;;;;;688534;28;1069;-35
2022/04/18 01:48:43;;;;;;;5.45;3.90;;;15.80;68.60;;;;;;688681;28;976;-37
2022/04/18 01:49:04;;;;;;;5.68;3.90;;;15.80;68.60;;;;;;688608;28;1192;-36
2022/04/18 01:49:25;;;;;;;5.10;3.60;;;15.80;68.60;;;;;;688594;28;884;-35
2022/04/18 01:49:46;;;;;;;4.68;3.67;;;15.80;68.50;;;;;;688315;28;1115;-36
2022/04/18 01:50:07;;;;;;;5.57;3.78;;;15.80;68.50;;;;;;688513;28;1019;-35
2022/04/18 01:50:28;;;;;;;5.47;3.75;;;15.80;68.50;;;;;;688433;28;1153;-35
2022/04/18 01:50:49;;;;;;;5.78;3.78;;;15.80;68.50;;;;;;686573;28;990;-35
2022/04/18 01:51:09;;;;;;;5.75;4.00;;;15.80;68.50;;;;;;688594;28;1054;-35
2022/04/18 01:51:30;;;;;;;5.25;3.95;;;15.80;68.50;;;;;;688495;28;1039;-37
2022/04/18 01:51:51;;;;;;;6.10;4.13;;;15.80;68.50;;;;;;688533;28;1083;-35
2022/04/18 01:52:12;;;;;;;5.53;3.63;;;15.80;68.50;;;;;;688540;28;952;-36
2022/04/18 01:52:33;;;;;;;5.03;3.20;;;15.70;68.40;;;;;;686209;28;1053;-36
2022/04/18 01:52:53;;;;;;;5.32;3.50;;;15.80;68.40;;;;;;688593;28;1048;-36
2022/04/18 01:53:15;;;;;;;5.72;3.70;;;15.70;68.40;;;;;;688574;28;1042;-35
2022/04/18 01:53:36;;;;;;;5.47;3.97;;;15.80;68.40;;;;;;688452;28;1086;-35
2022/04/18 01:53:56;;;;;;;6.28;4.00;;;15.80;68.40;;;;;;688522;28;1463;-37
2022/04/18 01:54:17;;;;;;;5.25;3.65;;;15.80;68.40;;;;;;688473;28;1048;-36
2022/04/18 01:54:38;;;;;;;5.18;3.65;;;15.80;68.40;;;;;;688410;28;1121;-35
2022/04/18 01:54:59;;;;;;;4.80;3.75;;;15.80;68.40;;;;;;688646;28;1106;-36
2022/04/18 01:55:20;;;;;;;5.57;3.85;;;15.80;68.40;;;;;;688594;28;967;-35
2022/04/18 01:55:41;;;;;;;5.22;3.75;;;15.80;68.40;;;;;;688407;28;978;-35
2022/04/18 01:56:02;;;;;;;4.90;3.63;;;15.70;68.40;;;;;;688473;28;987;-36
2022/04/18 01:56:23;;;;;;;4.82;3.58;;;15.80;68.40;;;;;;688494;28;988;-36
2022/04/18 01:56:43;;;;;;;5.03;3.83;;;15.80;68.40;;;;;;688625;28;817;-35
2022/04/18 01:57:04;;;;;;;5.65;3.80;;;15.80;68.40;;;;;;688472;28;1084;-36
2022/04/18 01:57:25;;;;;;;6.55;4.28;;;15.80;68.40;;;;;;688373;28;1133;-35
2022/04/18 01:57:46;;;;;;;6.32;4.05;;;15.80;68.40;;;;;;688336;28;1097;-35
2022/04/18 01:58:08;;;;;;;5.47;4.10;;;15.70;68.40;;;;;;682850;29;1110;-35
2022/04/18 01:58:29;;;;;;;5.35;3.95;;;15.80;68.40;;;;;;682816;28;1099;-35
2022/04/18 01:58:50;;;;;;;5.32;3.90;;;15.80;68.40;;;;;;683703;28;1275;-36
2022/04/18 01:59:11;;;;;;;5.30;3.70;;;15.80;68.40;;;;;;685816;28;1171;-35
2022/04/18 01:59:31;;;;;;;5.50;3.88;;;15.80;68.40;;;;;;685459;28;1281;-35